Bourg, Louisiana
Current Conditions -  °F | °C
As of 7:15 PM on Saturday 22 Nov 2014 (Local Time) from KHUM Reporting Station
Broken Clouds Broken Clouds  
Wind Chill: 64°   Ceiling: 900
Heat Index: 64°   Visibility: 7mi
Dew Point: 62°   Wind: 9mph
Humidity: 94%   Direction: 60°ENE
Pressure: 29.98"   Gusts: NA
Location:  29.55°N, 90.6°W
Report Text: KHUM 230115Z AUTO 06008KT 7SM BKN009 18/17 A2998 RMK AO2 T01750166
Loading
Personal Weather Stations






























Interactive Weather Map New forecast layout! Learn more

10-Day Weather Forecast

Advertisements
Track Severe Weather on mobile